Time;durP1;ratioP1;P1;durP2;ratioP2;P2;SDS_P1;SDS_P2;PMS_P1;PMS_P2;Temp;Humidity;BMP_temperature;BMP_pressure;BME280_temperature;BME280_humidity;BME280_pressure;Samples;Min_cycle;Max_cycle;Signal;HPM_P1;HPM_P2
2020/12/04 00:01:31;;;;;;;17.00;8.80;;;;;;;0.58;75.45;93365.44;5077329;28;20031;-53
2020/12/04 00:03:57;;;;;;;25.40;9.43;;;;;;;0.49;76.09;93362.94;5078039;28;20064;-52
2020/12/04 00:06:22;;;;;;;20.60;10.77;;;;;;;0.56;75.31;93367.91;5077422;28;20028;-50
2020/12/04 00:08:48;;;;;;;22.73;9.20;;;;;;;0.54;75.29;93373.81;5073004;28;20032;-53
2020/12/04 00:11:13;;;;;;;23.20;9.27;;;;;;;0.30;76.30;93369.97;5070605;28;20020;-53
2020/12/04 00:13:38;;;;;;;18.55;8.35;;;;;;;0.39;76.07;93365.09;5079029;28;20695;-53
2020/12/04 00:16:04;;;;;;;16.33;8.18;;;;;;;0.40;76.08;93365.84;5068685;28;20040;-51
2020/12/04 00:18:29;;;;;;;24.20;10.98;;;;;;;0.46;76.50;93378.22;5081435;28;20056;-51
2020/12/04 00:20:55;;;;;;;25.40;12.80;;;;;;;0.62;76.18;93374.09;5083335;28;20097;-54
2020/12/04 00:23:20;;;;;;;26.38;12.57;;;;;;;0.78;76.41;93379.63;5074098;28;20032;-53
2020/12/04 00:25:46;;;;;;;23.98;11.05;;;;;;;0.69;76.13;93377.09;5082174;28;20035;-52
2020/12/04 00:28:11;;;;;;;26.23;10.60;;;;;;;0.65;76.52;93368.44;5075170;28;20031;-55
2020/12/04 00:30:36;;;;;;;22.00;10.55;;;;;;;0.59;76.84;93366.91;5070344;28;20028;-51
2020/12/04 00:33:03;;;;;;;18.73;9.93;;;;;;;0.66;76.72;93372.66;5074794;28;20020;-51
2020/12/04 00:35:28;;;;;;;17.40;8.88;;;;;;;0.63;76.02;93381.00;5081933;28;20416;-52
2020/12/04 00:37:54;;;;;;;19.10;9.52;;;;;;;0.61;76.58;93386.19;5071087;28;20028;-55
2020/12/04 00:40:19;;;;;;;21.15;10.27;;;;;;;0.58;76.76;93379.03;5073540;28;20040;-53
2020/12/04 00:42:46;;;;;;;29.65;10.23;;;;;;;0.70;76.07;93373.16;5074177;28;20020;-52
2020/12/04 00:45:13;;;;;;;22.60;9.23;;;;;;;0.55;76.08;93355.53;5072312;28;20055;-51
2020/12/04 00:47:38;;;;;;;25.55;10.02;;;;;;;0.60;76.32;93371.13;5076439;28;20429;-51
2020/12/04 00:50:04;;;;;;;16.48;8.43;;;;;;;0.65;76.43;93365.00;5072735;28;20032;-52
2020/12/04 00:52:30;;;;;;;18.52;8.10;;;;;;;0.73;75.70;93353.19;5078589;28;20012;-53
2020/12/04 00:54:55;;;;;;;16.92;8.48;;;;;;;0.74;75.47;93345.75;5082897;28;20024;-51
2020/12/04 00:57:20;;;;;;;20.13;9.07;;;;;;;0.56;75.42;93341.47;5079401;28;20035;-53
2020/12/04 00:59:46;;;;;;;24.23;8.95;;;;;;;0.50;76.99;93339.94;5067585;28;20111;-50
2020/12/04 01:02:11;;;;;;;17.45;8.82;;;;;;;0.62;76.45;93349.66;5069981;28;20483;-50
2020/12/04 01:04:37;;;;;;;19.35;9.85;;;;;;;0.46;77.06;93364.63;5070519;28;20037;-52
2020/12/04 01:07:06;;;;;;;21.05;8.88;;;;;;;0.49;77.49;93360.22;5073781;28;20491;-55
2020/12/04 01:09:32;;;;;;;21.20;9.43;;;;;;;0.59;76.77;93364.94;5067432;28;20055;-54
2020/12/04 01:11:58;;;;;;;22.40;8.88;;;;;;;0.66;76.62;93353.63;5069415;28;20022;-54
2020/12/04 01:14:23;;;;;;;24.88;10.25;;;;;;;0.66;76.91;93352.88;5066543;28;20032;-56
2020/12/04 01:16:49;;;;;;;21.33;10.13;;;;;;;0.64;77.24;93353.38;5082159;28;20032;-52
2020/12/04 01:19:14;;;;;;;27.52;11.77;;;;;;;0.91;76.31;93349.28;5080530;28;20048;-52
2020/12/04 01:21:40;;;;;;;27.42;9.98;;;;;;;0.99;76.20;93339.44;5083741;28;20036;-49
2020/12/04 01:24:05;;;;;;;27.70;11.95;;;;;;;1.15;75.68;93348.88;5076323;28;20051;-51
2020/12/04 01:26:31;;;;;;;25.65;11.50;;;;;;;0.98;75.86;93348.81;5077025;28;20048;-53
2020/12/04 01:28:56;;;;;;;21.45;9.95;;;;;;;1.15;75.90;93341.44;5071679;28;20063;-52
2020/12/04 01:31:21;;;;;;;23.88;11.45;;;;;;;1.12;76.04;93341.69;5068328;28;20012;-50
2020/12/04 01:33:47;;;;;;;20.98;9.18;;;;;;;1.11;75.73;93332.78;5075120;28;20482;-54
2020/12/04 01:36:15;;;;;;;23.70;10.15;;;;;;;0.83;77.12;93329.22;5079264;28;20063;-50
2020/12/04 01:38:41;;;;;;;26.83;12.27;;;;;;;1.19;75.77;93320.19;5082695;28;20032;-54
2020/12/04 01:41:07;;;;;;;22.98;10.30;;;;;;;1.39;75.31;93319.97;5083393;28;20043;-49
2020/12/04 01:43:32;;;;;;;24.50;11.40;;;;;;;1.19;75.28;93322.91;5071355;28;20032;-53
2020/12/04 01:45:58;;;;;;;16.70;9.10;;;;;;;1.15;75.64;93324.41;5076982;28;20463;-55
2020/12/04 01:48:24;;;;;;;23.20;9.32;;;;;;;0.94;76.33;93298.63;5068180;28;20483;-52
2020/12/04 01:50:51;;;;;;;23.80;9.98;;;;;;;1.16;75.90;93315.75;5064464;28;20036;-54
2020/12/04 01:53:21;;;;;;;17.52;8.50;;;;;;;1.16;75.29;93315.00;5067204;28;20055;-52
2020/12/04 01:55:47;;;;;;;19.95;9.10;;;;;;;1.07;75.34;93302.38;5066429;28;21687;-51
2020/12/04 01:58:13;;;;;;;20.10;9.07;;;;;;;0.96;75.99;93307.03;5068604;28;20113;-54
2020/12/04 02:00:38;;;;;;;21.35;8.90;;;;;;;1.01;75.93;93307.06;5068632;28;20094;-55
2020/12/04 02:03:06;;;;;;;22.08;8.70;;;;;;;1.07;75.89;93304.34;5067434;28;20081;-51
2020/12/04 02:05:33;;;;;;;23.33;8.80;;;;;;;0.99;76.18;93301.38;5068629;28;20029;-51
2020/12/04 02:08:08;;;;;;;16.52;8.65;;;;;;;1.10;75.95;93300.66;5074149;28;20274;-53
2020/12/04 02:10:40;;;;;;;24.40;10.50;;;;;;;1.15;75.24;93292.50;5075810;28;20165;-53
2020/12/04 02:13:06;;;;;;;22.00;9.10;;;;;;;1.42;74.83;93291.81;5085851;28;20028;-51
2020/12/04 02:15:32;;;;;;;19.98;10.70;;;;;;;1.47;74.49;93299.22;5082979;28;20091;-50
2020/12/04 02:18:02;;;;;;;21.05;9.85;;;;;;;1.27;74.51;93291.28;5089199;28;20039;-54
2020/12/04 02:20:34;;;;;;;20.83;9.05;;;;;;;1.33;74.64;93288.56;5089172;28;20105;-53
2020/12/04 02:22:59;;;;;;;21.30;9.00;;;;;;;1.31;74.78;93299.19;5081095;28;20456;-53
2020/12/04 02:25:25;;;;;;;19.15;8.13;;;;;;;1.28;74.80;93292.03;5087689;28;20023;-53
2020/12/04 02:27:51;;;;;;;19.27;8.00;;;;;;;1.20;75.47;93297.22;5079297;28;20379;-53
2020/12/04 02:30:24;;;;;;;18.88;8.02;;;;;;;1.17;75.75;93295.47;5064371;28;20501;-51
2020/12/04 02:32:50;;;;;;;20.23;8.38;;;;;;;1.10;76.73;93295.22;5072742;28;20483;-54
2020/12/04 02:35:15;;;;;;;15.48;7.72;;;;;;;1.33;76.09;93288.56;5065532;28;20028;-53
2020/12/04 02:37:40;;;;;;;18.10;9.35;;;;;;;1.09;76.43;93289.03;5079851;28;20031;-56
2020/12/04 02:40:06;;;;;;;19.48;8.52;;;;;;;1.10;76.79;93279.66;5074051;28;20025;-53
2020/12/04 02:42:31;;;;;;;20.85;8.93;;;;;;;1.06;77.71;93273.69;5076198;28;20032;-55
2020/12/04 02:44:57;;;;;;;22.58;11.63;;;;;;;1.17;77.21;93262.84;5084271;28;20020;-55
2020/12/04 02:47:26;;;;;;;19.63;10.77;;;;;;;1.22;76.97;93248.50;5068239;28;20099;-52
2020/12/04 02:49:51;;;;;;;24.08;10.50;;;;;;;1.23;77.27;93252.72;5076815;28;20016;-52
2020/12/04 02:52:24;;;;;;;22.60;8.75;;;;;;;1.25;76.74;93254.94;5082302;28;20027;-54
2020/12/04 02:54:50;;;;;;;17.25;8.95;;;;;;;1.19;76.54;93246.78;5078693;28;20028;-53
2020/12/04 02:57:16;;;;;;;18.02;7.95;;;;;;;1.22;76.54;93266.81;5075229;28;20077;-53
2020/12/04 02:59:41;;;;;;;20.08;8.35;;;;;;;1.13;77.14;93270.50;5087644;28;20409;-49
2020/12/04 03:02:07;;;;;;;22.17;9.10;;;;;;;1.10;76.92;93260.63;5070960;28;20106;-53
2020/12/04 03:04:33;;;;;;;22.85;8.52;;;;;;;1.07;77.12;93277.16;5065508;28;20133;-52
2020/12/04 03:06:58;;;;;;;18.92;8.05;;;;;;;1.04;77.85;93276.16;5079855;28;20460;-54
2020/12/04 03:09:23;;;;;;;14.05;8.35;;;;;;;1.16;76.97;93264.09;5067505;28;20024;-52
2020/12/04 03:11:49;;;;;;;20.45;8.70;;;;;;;1.16;77.10;93269.53;5073854;28;20024;-53
2020/12/04 03:14:14;;;;;;;16.55;7.68;;;;;;;1.24;77.00;93277.94;5069411;28;20027;-52
2020/12/04 03:16:40;;;;;;;20.10;7.75;;;;;;;1.28;77.19;93283.84;5079770;28;20031;-53
2020/12/04 03:19:05;;;;;;;22.13;9.13;;;;;;;1.23;76.99;93263.59;5080243;28;20533;-50
2020/12/04 03:21:31;;;;;;;19.25;7.45;;;;;;;1.21;77.04;93274.22;5081143;28;20036;-51
2020/12/04 03:23:56;;;;;;;22.55;8.27;;;;;;;1.25;77.41;93274.72;5071049;28;21360;-50
2020/12/04 03:26:22;;;;;;;23.98;9.57;;;;;;;1.15;77.77;93270.75;5080713;28;20031;-52
2020/12/04 03:28:47;;;;;;;18.60;8.60;;;;;;;1.32;77.38;93287.81;5066721;28;20032;-55
2020/12/04 03:31:13;;;;;;;21.05;10.27;;;;;;;1.39;77.06;93279.19;5068528;28;20016;-51
2020/12/04 03:33:38;;;;;;;23.33;9.77;;;;;;;1.65;76.05;93273.50;5070602;28;20039;-54
2020/12/04 03:36:04;;;;;;;21.85;10.30;;;;;;;1.66;75.92;93276.97;5067912;28;20039;-53
2020/12/04 03:38:29;;;;;;;22.73;9.95;;;;;;;1.84;75.06;93290.78;5077605;28;20534;-54
2020/12/04 03:40:55;;;;;;;28.88;13.30;;;;;;;1.78;74.72;93292.78;5077628;28;20021;-54
2020/12/04 03:43:20;;;;;;;33.83;12.52;;;;;;;1.61;75.94;93283.88;5075041;28;20031;-54
2020/12/04 03:45:45;;;;;;;23.58;11.40;;;;;;;1.75;75.45;93287.59;5082206;28;20136;-53
2020/12/04 03:48:11;;;;;;;22.00;10.90;;;;;;;1.75;75.54;93284.88;5069107;28;20032;-51
2020/12/04 03:50:36;;;;;;;16.75;9.52;;;;;;;1.61;75.79;93294.03;5071071;28;20031;-52
2020/12/04 03:53:02;;;;;;;22.83;10.63;;;;;;;1.64;75.65;93295.78;5077880;28;20020;-53
2020/12/04 03:55:27;;;;;;;18.48;8.90;;;;;;;1.48;76.45;93281.66;5088113;28;20042;-53
2020/12/04 03:57:53;;;;;;;23.63;8.70;;;;;;;1.61;76.33;93285.88;5088238;28;20020;-54
2020/12/04 04:00:18;;;;;;;20.67;8.32;;;;;;;1.66;75.87;93287.84;5080863;28;20032;-53
2020/12/04 04:02:44;;;;;;;20.40;8.88;;;;;;;1.59;76.12;93294.53;5075579;28;20032;-55
2020/12/04 04:05:09;;;;;;;21.27;8.93;;;;;;;1.48;76.92;93291.78;5070175;28;20696;-55
2020/12/04 04:07:34;;;;;;;15.35;7.97;;;;;;;1.49;76.49;93304.91;5071518;28;20414;-51
2020/12/04 04:10:00;;;;;;;21.33;7.95;;;;;;;1.52;76.34;93309.38;5071394;28;20031;-55
2020/12/04 04:12:25;;;;;;;16.35;8.05;;;;;;;1.45;76.09;93309.84;5088883;28;20024;-55
2020/12/04 04:14:51;;;;;;;17.90;8.98;;;;;;;1.52;76.45;93303.91;5091621;28;20028;-50
2020/12/04 04:17:17;;;;;;;19.33;8.90;;;;;;;1.59;76.84;93296.50;5091642;28;20035;-52
2020/12/04 04:19:42;;;;;;;15.52;8.07;;;;;;;1.60;76.17;93287.13;5091579;28;20048;-50
2020/12/04 04:22:08;;;;;;;19.90;9.13;;;;;;;1.71;76.10;93303.44;5090332;28;20455;-48
2020/12/04 04:24:33;;;;;;;17.73;8.95;;;;;;;1.83;75.65;93294.78;5071377;28;20363;-53
2020/12/04 04:26:58;;;;;;;22.25;9.77;;;;;;;1.82;75.49;93287.84;5071311;28;20040;-52
2020/12/04 04:29:24;;;;;;;19.52;8.90;;;;;;;1.92;74.99;93296.50;5070671;28;20032;-53
2020/12/04 04:31:52;;;;;;;18.58;8.30;;;;;;;1.92;75.09;93278.19;5086228;28;20500;-50
2020/12/04 04:34:18;;;;;;;17.17;8.30;;;;;;;2.02;74.55;93281.38;5072663;28;20020;-50
2020/12/04 04:36:44;;;;;;;20.00;9.55;;;;;;;2.05;74.61;93283.88;5073571;28;20042;-51
2020/12/04 04:39:10;;;;;;;23.33;9.88;;;;;;;2.12;74.27;93279.88;5069806;28;20032;-53
2020/12/04 04:41:35;;;;;;;15.95;8.98;;;;;;;2.05;74.66;93274.94;5086468;28;20418;-53
2020/12/04 04:44:01;;;;;;;21.27;9.07;;;;;;;1.80;75.20;93275.97;5091070;28;20055;-49
2020/12/04 04:47:00;;;;;;;16.52;8.18;;;;;;;1.66;76.10;93274.25;5090992;28;20035;-51
2020/12/04 04:49:28;;;;;;;22.30;9.75;;;;;;;1.59;76.35;93263.84;5090800;28;20020;-49
2020/12/04 04:51:57;;;;;;;19.00;8.00;;;;;;;1.52;76.55;93271.28;5080024;28;20075;-53
2020/12/04 04:54:26;;;;;;;23.45;8.75;;;;;;;1.49;77.01;93258.66;5070797;28;20025;-53
2020/12/04 04:56:52;;;;;;;22.63;9.40;;;;;;;1.36;76.94;93252.25;5069387;28;20025;-52
2020/12/04 04:59:19;;;;;;;22.17;8.43;;;;;;;1.25;77.45;93254.94;5078186;28;20372;-50
2020/12/04 05:01:46;;;;;;;23.17;7.85;;;;;;;1.23;77.88;93260.88;5082871;28;20020;-51
2020/12/04 05:04:12;;;;;;;18.15;7.57;;;;;;;1.20;77.57;93253.72;5090795;28;20027;-51
2020/12/04 05:06:37;;;;;;;18.05;7.95;;;;;;;1.16;77.72;93257.91;5077068;28;20032;-52
2020/12/04 05:09:08;;;;;;;18.92;9.23;;;;;;;1.25;78.31;93263.84;5088909;28;20452;-54
2020/12/04 05:11:34;;;;;;;20.98;8.85;;;;;;;1.33;78.19;93269.53;5086734;28;20099;-50
2020/12/04 05:14:17;;;;;;;18.42;9.63;;;;;;;1.38;77.82;93271.53;5089378;28;20093;-53
2020/12/04 05:16:44;;;;;;;20.08;11.45;;;;;;;1.49;77.77;93271.53;5089122;28;20032;-50
2020/12/04 05:19:10;;;;;;;24.35;9.52;;;;;;;1.54;78.10;93268.06;5089436;28;20052;-54
2020/12/04 05:21:36;;;;;;;17.67;7.70;;;;;;;1.49;77.68;93272.25;5089285;28;20403;-50
2020/12/04 05:24:01;;;;;;;19.63;8.00;;;;;;;1.54;77.61;93270.78;5072589;28;20028;-49
2020/12/04 05:26:35;;;;;;;24.08;9.10;;;;;;;1.60;77.78;93271.53;5084706;28;20114;-52
2020/12/04 05:29:01;;;;;;;26.13;11.38;;;;;;;1.53;77.51;93277.47;5071582;28;20020;-50
2020/12/04 05:31:32;;;;;;;30.02;12.27;;;;;;;1.56;77.60;93268.28;5069328;28;20062;-50
2020/12/04 05:33:58;;;;;;;21.67;11.05;;;;;;;1.79;77.26;93277.22;5067297;28;20059;-52
2020/12/04 05:36:25;;;;;;;24.33;11.07;;;;;;;1.89;76.19;93272.97;5072231;28;20447;-54
2020/12/04 05:38:52;;;;;;;17.00;9.13;;;;;;;1.95;76.51;93273.72;5067987;28;20029;-51
2020/12/04 05:41:17;;;;;;;17.60;9.73;;;;;;;1.96;75.90;93264.31;5070378;28;20036;-54
2020/12/04 05:43:43;;;;;;;20.50;9.75;;;;;;;1.84;75.88;93262.84;5082005;28;20036;-54
2020/12/04 05:46:17;;;;;;;18.55;9.20;;;;;;;1.83;76.27;93264.84;5067345;28;20461;-50
2020/12/04 05:49:04;;;;;;;18.17;8.68;;;;;;;1.73;77.04;93271.78;5082746;28;20421;-51
2020/12/04 05:51:31;;;;;;;13.77;7.97;;;;;;;1.85;75.83;93277.94;5077270;28;20059;-53
2020/12/04 05:53:57;;;;;;;13.55;6.97;;;;;;;1.81;75.62;93252.94;5067148;28;20032;-50
2020/12/04 05:56:23;;;;;;;19.40;7.95;;;;;;;1.76;76.00;93261.84;5066277;28;20031;-52
2020/12/04 05:58:52;;;;;;;20.77;6.85;;;;;;;1.65;76.98;93262.59;5063386;28;20031;-52
2020/12/04 06:01:19;;;;;;;16.70;7.13;;;;;;;1.64;77.03;93272.03;5064209;28;20363;-53
2020/12/04 06:03:55;;;;;;;15.63;7.53;;;;;;;1.52;77.41;93265.09;5084281;28;20489;-52
2020/12/04 06:06:29;;;;;;;18.65;8.32;;;;;;;1.47;78.05;93265.84;5070930;28;20029;-53
2020/12/04 06:09:02;;;;;;;19.63;8.48;;;;;;;1.47;78.35;93272.00;5061963;28;20060;-53
2020/12/04 06:11:32;;;;;;;17.17;8.20;;;;;;;1.60;77.80;93276.22;5082001;28;20036;-50
2020/12/04 06:13:59;;;;;;;14.02;6.65;;;;;;;1.66;77.44;93274.25;5064113;28;20057;-53
2020/12/04 06:16:25;;;;;;;14.32;7.53;;;;;;;1.62;77.41;93265.59;5073510;28;20025;-49
2020/12/04 06:18:51;;;;;;;14.55;7.47;;;;;;;1.60;77.58;93271.53;5070473;28;20052;-52
2020/12/04 06:21:46;;;;;;;10.32;5.93;;;;;;;1.57;78.08;93272.50;5079721;28;20024;-52
2020/12/04 06:24:11;;;;;;;12.05;6.45;;;;;;;1.63;78.35;93270.53;5067121;28;20163;-54
2020/12/04 06:26:49;;;;;;;15.95;9.00;;;;;;;1.66;78.03;93277.72;5065329;28;20095;-54
2020/12/04 06:29:14;;;;;;;11.00;6.35;;;;;;;1.76;78.23;93276.22;5074443;28;20059;-54
2020/12/04 06:31:40;;;;;;;36.58;16.65;;;;;;;1.94;77.47;93269.50;5067220;28;20032;-54
2020/12/04 06:34:16;;;;;;;19.55;9.50;;;;;;;1.94;77.35;93264.06;5073293;28;20031;-54
2020/12/04 06:36:42;;;;;;;13.30;6.57;;;;;;;1.77;77.81;93255.94;5063030;28;20741;-54
2020/12/04 06:39:08;;;;;;;17.55;8.05;;;;;;;1.92;77.69;93250.22;5057909;28;20135;-53
2020/12/04 06:41:46;;;;;;;14.50;7.05;;;;;;;2.07;77.20;93256.13;5065638;28;20028;-53
2020/12/04 06:44:25;;;;;;;13.68;5.95;;;;;;;2.11;76.91;93253.88;5074000;28;20042;-53
2020/12/04 06:46:53;;;;;;;11.48;5.60;;;;;;;1.95;77.10;93246.50;5083785;28;20107;-53
2020/12/04 06:49:23;;;;;;;11.70;6.15;;;;;;;1.87;77.43;93251.72;5065039;28;20016;-53
2020/12/04 06:52:10;;;;;;;15.68;6.22;;;;;;;1.78;77.70;93251.97;5064759;28;20111;-53
2020/12/04 06:54:38;;;;;;;14.55;6.45;;;;;;;1.82;78.27;93259.91;5062920;28;20028;-54
2020/12/04 06:57:03;;;;;;;12.23;5.75;;;;;;;1.81;78.15;93263.84;5064583;28;20024;-51
2020/12/04 06:59:36;;;;;;;11.95;5.97;;;;;;;1.81;78.17;93263.84;5067371;28;20036;-56
2020/12/04 07:02:07;;;;;;;11.77;6.18;;;;;;;1.79;78.81;93250.00;5063805;28;20098;-54
2020/12/04 07:04:35;;;;;;;12.27;5.30;;;;;;;1.85;78.37;93259.63;5070355;28;20070;-52
2020/12/04 07:07:02;;;;;;;20.75;7.32;;;;;;;1.92;78.45;93261.09;5083039;28;20035;-52
2020/12/04 07:09:27;;;;;;;15.70;6.07;;;;;;;1.82;78.96;93249.72;5073596;28;20382;-55
2020/12/04 07:11:58;;;;;;;14.38;5.70;;;;;;;1.88;78.70;93255.19;5064163;28;20028;-51
2020/12/04 07:14:24;;;;;;;13.63;6.07;;;;;;;1.83;78.38;93253.19;5060728;28;20024;-50
2020/12/04 07:16:50;;;;;;;10.95;5.75;;;;;;;1.73;78.48;93268.31;5063563;28;20036;-50
2020/12/04 07:19:15;;;;;;;15.35;6.85;;;;;;;1.63;79.42;93265.09;5063223;28;20686;-54
2020/12/04 07:21:41;;;;;;;14.45;7.65;;;;;;;1.69;79.61;93271.25;5065042;28;20029;-53
2020/12/04 07:24:07;;;;;;;17.77;7.22;;;;;;;1.86;79.50;93263.09;5085746;28;20032;-53
2020/12/04 07:26:32;;;;;;;18.20;7.82;;;;;;;1.95;78.99;93265.56;5088790;28;20126;-53
2020/12/04 07:28:58;;;;;;;16.42;7.50;;;;;;;2.02;79.09;93260.34;5083532;28;20178;-54
2020/12/04 07:31:23;;;;;;;16.42;7.05;;;;;;;2.27;78.83;93264.00;5086935;28;20502;-53
2020/12/04 07:33:57;;;;;;;12.55;6.72;;;;;;;2.43;77.80;93263.19;5084773;28;20029;-55
2020/12/04 07:36:27;;;;;;;16.75;8.57;;;;;;;2.62;77.08;93245.03;5078511;28;20028;-50
2020/12/04 07:39:00;;;;;;;14.73;6.95;;;;;;;2.89;76.93;93254.34;5067695;28;20031;-50
2020/12/04 07:41:31;;;;;;;16.00;7.43;;;;;;;3.10;75.49;93255.44;5071359;28;20026;-54
2020/12/04 07:43:58;;;;;;;14.70;8.18;;;;;;;3.20;75.34;93262.09;5070041;28;20503;-55
2020/12/04 07:46:23;;;;;;;16.42;7.18;;;;;;;3.50;74.87;93273.06;5069918;28;20024;-54
2020/12/04 07:48:59;;;;;;;19.67;7.00;;;;;;;3.63;73.96;93276.69;5068052;28;20832;-52
2020/12/04 07:51:26;;;;;;;18.75;8.73;;;;;;;3.71;72.89;93268.66;5066401;28;20043;-57
2020/12/04 07:53:56;;;;;;;15.13;8.52;;;;;;;3.64;72.25;93278.16;5078487;28;20028;-56
2020/12/04 07:56:26;;;;;;;15.50;7.32;;;;;;;3.34;74.26;93287.53;5074743;28;20059;-55
2020/12/04 07:59:05;;;;;;;11.95;7.72;;;;;;;3.23;74.19;93282.19;5066700;28;20028;-56
2020/12/04 08:01:38;;;;;;;16.58;8.10;;;;;;;3.02;75.52;93290.72;5069768;28;20031;-56
2020/12/04 08:04:03;;;;;;;12.93;6.68;;;;;;;3.05;75.10;93303.31;5066655;28;20119;-54
2020/12/04 08:06:29;;;;;;;14.65;7.88;;;;;;;3.15;75.50;93303.03;5067320;28;20542;-55
2020/12/04 08:09:11;;;;;;;13.43;7.28;;;;;;;3.14;75.20;93296.09;5067299;28;20039;-54
2020/12/04 08:11:38;;;;;;;20.15;8.05;;;;;;;3.14;74.83;93283.19;5088066;28;20389;-54
2020/12/04 08:14:04;;;;;;;20.08;8.57;;;;;;;3.18;74.93;93307.50;5071453;28;20028;-57
2020/12/04 08:16:32;;;;;;;19.85;7.72;;;;;;;3.38;74.93;93315.31;5069648;28;20086;-55
2020/12/04 08:19:09;;;;;;;12.63;7.72;;;;;;;3.45;74.02;93318.22;5066385;28;20047;-56
2020/12/04 08:21:35;;;;;;;14.85;7.88;;;;;;;3.43;74.08;93307.09;5068062;28;20035;-56
2020/12/04 08:24:00;;;;;;;18.67;7.68;;;;;;;3.67;74.00;93300.97;5084142;28;20020;-53
2020/12/04 08:26:26;;;;;;;15.65;8.45;;;;;;;3.88;73.15;93298.59;5079398;28;20086;-54
2020/12/04 08:28:55;;;;;;;17.38;9.20;;;;;;;3.97;72.81;93293.53;5080714;28;20028;-57
2020/12/04 08:31:25;;;;;;;12.10;6.55;;;;;;;4.03;72.61;93286.00;5064917;28;20028;-54
2020/12/04 08:33:51;;;;;;;17.50;9.23;;;;;;;4.08;72.81;93285.22;5066251;28;20457;-57
2020/12/04 08:36:16;;;;;;;14.20;8.68;;;;;;;4.22;72.62;93275.91;5070819;28;20032;-57
2020/12/04 08:38:52;;;;;;;13.38;7.38;;;;;;;4.36;72.17;93269.31;5065547;28;20086;-53
2020/12/04 08:41:17;;;;;;;13.18;6.57;;;;;;;4.25;72.08;93274.88;5065200;28;20050;-56
2020/12/04 08:43:43;;;;;;;12.68;7.68;;;;;;;4.21;72.19;93273.69;5066782;28;20510;-55
2020/12/04 08:46:10;;;;;;;14.93;6.78;;;;;;;4.36;71.67;93282.22;5066260;28;20071;-55
2020/12/04 08:48:38;;;;;;;9.98;5.25;;;;;;;4.14;72.22;93280.44;5071924;28;20028;-55
2020/12/04 08:51:05;;;;;;;12.60;6.60;;;;;;;4.10;72.78;93271.81;5069043;28;20028;-55
2020/12/04 08:53:33;;;;;;;11.07;6.13;;;;;;;4.10;72.47;93280.00;5067761;28;20694;-56
2020/12/04 08:56:00;;;;;;;10.98;5.32;;;;;;;3.94;73.30;93261.03;5068084;28;20387;-54
2020/12/04 08:58:27;;;;;;;12.85;6.57;;;;;;;4.01;73.61;93263.19;5065390;28;20090;-52
2020/12/04 09:00:53;;;;;;;14.32;7.35;;;;;;;4.09;72.69;93248.47;5067030;28;20043;-54
2020/12/04 09:03:20;;;;;;;15.05;7.15;;;;;;;4.06;72.79;93252.22;5067003;28;20564;-56
2020/12/04 09:05:46;;;;;;;11.57;5.55;;;;;;;4.01;73.11;93236.63;5067750;28;20024;-54
2020/12/04 09:08:12;;;;;;;11.02;7.50;;;;;;;4.10;73.25;93247.22;5067809;28;20020;-54
2020/12/04 09:10:38;;;;;;;9.65;5.40;;;;;;;4.44;72.46;93237.41;5066968;28;20097;-55
2020/12/04 09:13:05;;;;;;;9.90;5.72;;;;;;;4.47;71.83;93241.84;5067828;28;20017;-56
2020/12/04 09:15:30;;;;;;;13.43;7.97;;;;;;;4.38;71.83;93244.94;5067742;28;20473;-55
2020/12/04 09:17:56;;;;;;;14.52;6.68;;;;;;;4.16;72.44;93241.72;5067557;28;20058;-53
2020/12/04 09:20:24;;;;;;;14.50;8.68;;;;;;;4.21;72.60;93241.63;5067534;28;20503;-55
2020/12/04 09:22:49;;;;;;;14.60;7.00;;;;;;;4.06;73.21;93249.50;5071916;28;20831;-55
2020/12/04 09:25:16;;;;;;;16.02;7.90;;;;;;;3.97;73.38;93251.81;5086615;28;20028;-54
2020/12/04 09:27:42;;;;;;;14.73;8.23;;;;;;;3.83;73.64;93229.81;5073148;28;20032;-54
2020/12/04 09:30:13;;;;;;;14.73;7.13;;;;;;;3.95;73.58;93248.84;5065882;28;20036;-53
2020/12/04 09:32:38;;;;;;;13.07;7.28;;;;;;;4.06;73.53;93246.75;5062118;28;20036;-54
2020/12/04 09:35:05;;;;;;;13.23;6.68;;;;;;;4.00;72.94;93234.41;5058941;28;20033;-54
2020/12/04 09:37:32;;;;;;;12.25;7.22;;;;;;;4.02;73.77;93238.09;5074749;28;20123;-54
2020/12/04 09:39:59;;;;;;;19.38;8.88;;;;;;;4.18;73.27;93244.66;5085123;28;20460;-55
2020/12/04 09:42:26;;;;;;;12.50;6.53;;;;;;;4.18;72.93;93236.47;5077258;28;20479;-52
2020/12/04 09:44:53;;;;;;;14.38;7.68;;;;;;;4.19;72.64;93235.19;5069312;28;20020;-54
2020/12/04 09:47:19;;;;;;;13.30;6.47;;;;;;;3.96;73.69;93253.81;5076303;28;20032;-55
2020/12/04 09:49:45;;;;;;;12.25;6.22;;;;;;;4.11;72.99;93245.22;5072118;28;20085;-54
2020/12/04 09:52:12;;;;;;;12.60;6.53;;;;;;;3.80;73.85;93238.31;5065388;28;20028;-53
2020/12/04 09:54:39;;;;;;;15.32;7.13;;;;;;;3.75;74.86;93252.75;5082834;28;20023;-53
2020/12/04 09:57:06;;;;;;;13.13;7.22;;;;;;;3.80;74.61;93239.06;5070218;28;20077;-54
2020/12/04 09:59:32;;;;;;;13.98;6.97;;;;;;;3.69;75.23;93241.13;5085696;28;20035;-56
2020/12/04 10:01:58;;;;;;;14.32;7.13;;;;;;;3.77;75.11;93242.03;5074935;28;20032;-55
2020/12/04 10:04:24;;;;;;;14.32;8.23;;;;;;;3.76;75.56;93252.25;5065590;28;20133;-56
2020/12/04 10:06:50;;;;;;;14.38;8.15;;;;;;;3.88;75.10;93252.88;5065523;28;20384;-55
2020/12/04 10:09:16;;;;;;;19.50;9.07;;;;;;;3.99;75.18;93239.13;5068128;28;20032;-55
2020/12/04 10:11:42;;;;;;;12.98;7.40;;;;;;;4.17;73.79;93229.50;5071868;28;20038;-55
2020/12/04 10:14:08;;;;;;;11.40;6.43;;;;;;;4.14;74.05;93231.28;5077051;28;20021;-53
2020/12/04 10:16:33;;;;;;;16.10;7.93;;;;;;;4.11;74.13;93239.75;5076733;28;20056;-56
2020/12/04 10:18:59;;;;;;;15.30;7.43;;;;;;;4.13;74.38;93240.00;5065895;28;20056;-52
2020/12/04 10:21:35;;;;;;;13.32;7.22;;;;;;;4.23;74.28;93232.91;5065754;28;20028;-50
2020/12/04 10:24:03;;;;;;;16.92;9.43;;;;;;;4.15;74.55;93232.75;5080589;28;20416;-54
2020/12/04 10:26:28;;;;;;;17.75;8.45;;;;;;;3.96;74.82;93236.69;5084733;28;20028;-52
2020/12/04 10:28:54;;;;;;;14.75;7.65;;;;;;;4.22;74.71;93236.91;5083765;28;20042;-54
2020/12/04 10:31:19;;;;;;;14.25;8.60;;;;;;;4.31;74.06;93233.84;5081428;28;20064;-54
2020/12/04 10:33:45;;;;;;;15.90;8.57;;;;;;;4.49;73.50;93228.41;5063399;28;20044;-54
2020/12/04 10:36:10;;;;;;;16.27;7.53;;;;;;;4.54;73.04;93238.56;5069524;28;20058;-55
2020/12/04 10:38:36;;;;;;;14.93;8.27;;;;;;;4.42;73.52;93223.50;5078164;28;20036;-54
2020/12/04 10:41:01;;;;;;;17.20;7.75;;;;;;;4.50;73.94;93226.41;5064547;28;20036;-54
2020/12/04 10:43:27;;;;;;;16.80;8.15;;;;;;;4.46;73.68;93215.03;5065237;28;20528;-54
2020/12/04 10:45:53;;;;;;;20.00;8.75;;;;;;;4.29;74.56;93207.00;5065128;28;20040;-54
2020/12/04 10:48:19;;;;;;;16.80;8.60;;;;;;;4.35;74.39;93215.16;5064455;28;20036;-54
2020/12/04 10:50:45;;;;;;;14.25;7.95;;;;;;;4.43;73.87;93203.13;5065866;28;20078;-51
2020/12/04 10:53:11;;;;;;;22.85;9.55;;;;;;;4.31;74.40;93212.00;5077412;28;20028;-51
2020/12/04 10:55:37;;;;;;;20.15;9.40;;;;;;;4.10;75.44;93217.16;5073340;28;20069;-53
2020/12/04 10:58:02;;;;;;;19.75;9.50;;;;;;;4.00;75.69;93223.47;5063902;28;20418;-52
2020/12/04 11:00:28;;;;;;;23.50;8.90;;;;;;;3.77;76.34;93217.47;5070880;28;20070;-52
2020/12/04 11:03:01;;;;;;;26.23;12.85;;;;;;;3.65;76.83;93208.66;5070079;28;20033;-51
2020/12/04 11:07:58;;;;;;;26.05;12.80;;;;;;;3.85;76.61;93210.22;5063222;28;20059;-55
2020/12/04 11:10:24;;;;;;;15.73;8.93;;;;;;;3.96;75.42;93207.38;5075154;28;20032;-56
2020/12/04 11:12:50;;;;;;;16.38;8.23;;;;;;;3.98;75.08;93212.31;5068918;28;20055;-56
2020/12/04 11:15:15;;;;;;;16.88;8.55;;;;;;;3.66;75.51;93203.94;5077796;28;20427;-53
2020/12/04 11:17:41;;;;;;;15.27;8.48;;;;;;;3.57;76.65;93198.81;5082978;28;20123;-53
2020/12/04 11:20:06;;;;;;;27.73;12.55;;;;;;;3.51;77.47;93190.66;5064185;28;20057;-56
2020/12/04 11:22:33;;;;;;;21.30;9.18;;;;;;;3.78;76.58;93211.53;5080988;28;20037;-53
2020/12/04 11:25:02;;;;;;;18.40;8.73;;;;;;;3.89;75.37;93210.69;5065660;28;20024;-54
2020/12/04 11:27:28;;;;;;;16.27;8.18;;;;;;;3.70;75.83;93221.50;5065678;28;20101;-56
2020/12/04 11:29:53;;;;;;;20.08;9.25;;;;;;;3.71;75.84;93219.53;5064402;28;20064;-55
2020/12/04 11:32:19;;;;;;;20.00;9.27;;;;;;;3.67;75.96;93219.06;5064201;28;20028;-56
2020/12/04 11:34:44;;;;;;;14.38;8.05;;;;;;;3.64;76.56;93206.41;5065169;28;20028;-57